createdAt,value
2018-11-13T00:00:00.393Z,41.70
2018-11-13T00:01:00.369Z,34.50
2018-11-13T00:02:00.350Z,39.20
2018-11-13T00:03:00.330Z,32.80
2018-11-13T00:04:00.302Z,31.80
2018-11-13T00:05:00.285Z,31.60
2018-11-13T00:06:00.263Z,32.90
2018-11-13T00:07:00.243Z,29.80
2018-11-13T00:08:00.211Z,31.10
2018-11-13T00:09:00.216Z,28.90
2018-11-13T00:10:00.166Z,27.70
2018-11-13T00:11:00.153Z,31.60
2018-11-13T00:12:00.143Z,31.00
2018-11-13T00:13:00.107Z,26.50
2018-11-13T00:14:00.094Z,29.70
2018-11-13T00:15:00.075Z,30.30
2018-11-13T00:16:00.061Z,28.40
2018-11-13T00:17:00.052Z,26.40
2018-11-13T00:18:00.008Z,23.20
2018-11-13T00:18:59.994Z,31.10
2018-11-13T00:19:59.976Z,27.30
2018-11-13T00:20:59.952Z,28.30
2018-11-13T00:21:59.934Z,24.70
2018-11-13T00:22:59.927Z,23.20
2018-11-13T00:23:59.917Z,30.10
2018-11-13T00:24:59.870Z,26.90
2018-11-13T00:25:59.850Z,23.60
2018-11-13T00:26:59.835Z,22.10
2018-11-13T00:27:59.809Z,25.90
2018-11-13T00:28:59.792Z,25.50
2018-11-13T00:29:59.768Z,23.60
2018-11-13T00:30:59.755Z,25.20
2018-11-13T00:31:59.717Z,23.80
2018-11-13T00:32:59.690Z,22.90
2018-11-13T00:33:59.673Z,21.20
2018-11-13T00:34:59.658Z,22.70
2018-11-13T00:35:59.640Z,21.60
2018-11-13T00:36:59.620Z,20.60
2018-11-13T00:37:59.601Z,21.50
2018-11-13T00:38:59.581Z,21.70
2018-11-13T00:39:59.565Z,23.70
2018-11-13T00:40:59.540Z,23.10
2018-11-13T00:41:59.535Z,22.50
2018-11-13T00:42:59.498Z,24.30
2018-11-13T00:43:59.476Z,24.70
2018-11-13T00:44:59.456Z,21.80
2018-11-13T00:45:59.455Z,22.10
2018-11-13T00:46:59.416Z,19.20
2018-11-13T00:47:59.398Z,22.50
2018-11-13T00:48:59.369Z,22.00
2018-11-13T00:49:59.353Z,22.30
2018-11-13T00:50:59.433Z,22.20
2018-11-13T00:51:59.313Z,24.80
2018-11-13T00:52:59.289Z,21.20
2018-11-13T00:53:59.271Z,21.20
2018-11-13T00:54:59.341Z,25.00
2018-11-13T00:55:59.223Z,19.50
2018-11-13T00:56:59.211Z,22.20
2018-11-13T00:57:59.182Z,23.40
2018-11-13T00:58:59.161Z,16.60
2018-11-13T00:59:59.138Z,23.80
2018-11-13T01:00:59.116Z,25.20
2018-11-13T01:01:59.122Z,21.60
2018-11-13T01:02:59.091Z,21.70
2018-11-13T01:03:59.062Z,20.70
2018-11-13T01:04:59.093Z,22.60
2018-11-13T01:05:59.024Z,19.80
2018-11-13T01:06:59.004Z,23.50
2018-11-13T01:07:58.969Z,23.30
2018-11-13T01:08:58.957Z,22.20
2018-11-13T01:09:58.939Z,25.60
2018-11-13T01:10:58.922Z,24.00
2018-11-13T01:11:59.231Z,23.30
2018-11-13T01:12:58.864Z,24.30
2018-11-13T01:13:58.845Z,21.90
2018-11-13T01:14:58.827Z,23.50
2018-11-13T01:15:58.805Z,23.00
2018-11-13T01:16:58.798Z,24.50
2018-11-13T01:17:58.780Z,25.80
2018-11-13T01:18:58.763Z,25.00
2018-11-13T01:19:58.738Z,23.20
2018-11-13T01:20:58.723Z,19.80
2018-11-13T01:21:59.116Z,24.40
2018-11-13T01:22:58.657Z,22.50
2018-11-13T01:23:58.724Z,22.30
2018-11-13T01:24:58.626Z,23.80
2018-11-13T01:25:58.620Z,23.10
2018-11-13T01:26:58.590Z,23.60
2018-11-13T01:27:58.555Z,22.90
2018-11-13T01:28:58.549Z,21.60
2018-11-13T01:29:58.526Z,26.70
2018-11-13T01:30:58.503Z,26.80
2018-11-13T01:31:58.483Z,21.30
2018-11-13T01:32:58.466Z,21.10
2018-11-13T01:33:58.445Z,23.10
2018-11-13T01:34:58.424Z,24.20
2018-11-13T01:35:58.403Z,23.40
2018-11-13T01:36:58.381Z,20.50
2018-11-13T01:37:58.351Z,18.80
2018-11-13T01:38:58.326Z,18.90
2018-11-13T01:39:58.319Z,17.90
2018-11-13T01:40:58.306Z,17.80
2018-11-13T01:41:58.275Z,14.90
2018-11-13T01:42:58.259Z,14.90
2018-11-13T01:43:58.321Z,12.90
2018-11-13T01:44:58.211Z,12.80
2018-11-13T01:45:58.206Z,10.50
2018-11-13T01:46:58.170Z,11.50
2018-11-13T01:47:58.164Z,12.40
2018-11-13T01:48:58.131Z,13.20
2018-11-13T01:49:58.096Z,11.40
2018-11-13T01:50:58.097Z,9.60
2018-11-13T01:51:58.071Z,11.20
2018-11-13T01:52:58.046Z,12.00
2018-11-13T01:53:58.156Z,12.50
2018-11-13T01:54:58.003Z,10.90
2018-11-13T01:55:57.971Z,11.80
2018-11-13T01:56:57.961Z,11.50
2018-11-13T01:57:57.945Z,13.00
2018-11-13T01:58:57.923Z,10.70
2018-11-13T01:59:57.905Z,11.40
2018-11-13T02:00:57.878Z,11.40
2018-11-13T02:01:57.860Z,10.70
2018-11-13T02:02:57.833Z,10.90
2018-11-13T02:03:57.807Z,11.30
2018-11-13T02:04:57.792Z,12.60
2018-11-13T02:05:57.776Z,11.40
2018-11-13T02:06:57.753Z,12.30
2018-11-13T02:07:57.740Z,11.70
2018-11-13T02:08:57.715Z,11.80
2018-11-13T02:09:57.690Z,11.60
2018-11-13T02:10:57.672Z,12.10
2018-11-13T02:11:57.654Z,13.00
2018-11-13T02:12:57.617Z,15.00
2018-11-13T02:13:57.602Z,14.00
2018-11-13T02:14:57.585Z,13.70
2018-11-13T02:15:57.548Z,10.90
2018-11-13T02:16:57.529Z,11.90
2018-11-13T02:17:57.513Z,10.10
2018-11-13T02:18:57.490Z,11.50
2018-11-13T02:19:57.463Z,13.70
2018-11-13T02:20:57.461Z,13.20
2018-11-13T02:21:57.440Z,12.50
2018-11-13T02:22:57.411Z,14.30
2018-11-13T02:23:57.396Z,16.30
2018-11-13T02:24:57.375Z,14.70
2018-11-13T02:25:57.358Z,13.60
2018-11-13T02:26:57.322Z,15.30
2018-11-13T02:27:57.308Z,16.20
2018-11-13T02:28:57.296Z,16.90
2018-11-13T02:29:57.269Z,15.60
2018-11-13T02:30:57.250Z,16.40
2018-11-13T02:31:57.216Z,16.50
2018-11-13T02:32:57.210Z,22.00
2018-11-13T02:33:57.189Z,16.00
2018-11-13T02:34:57.163Z,19.90
2018-11-13T02:35:57.253Z,20.00
2018-11-13T02:36:57.125Z,19.40
2018-11-13T02:37:57.103Z,18.10
2018-11-13T02:38:57.078Z,17.50
2018-11-13T02:39:57.040Z,17.20
2018-11-13T02:40:57.034Z,20.90
2018-11-13T02:41:57.031Z,20.60
2018-11-13T02:42:56.992Z,24.00
2018-11-13T02:43:56.971Z,19.40
2018-11-13T02:44:56.954Z,23.90
2018-11-13T02:45:56.938Z,24.30
2018-11-13T02:46:56.895Z,23.20
2018-11-13T02:47:56.895Z,22.00
2018-11-13T02:48:56.875Z,20.40
2018-11-13T02:49:56.851Z,23.60
2018-11-13T02:50:56.841Z,22.30
2018-11-13T02:51:56.807Z,22.40
2018-11-13T02:52:56.789Z,23.90
2018-11-13T02:53:56.764Z,22.40
2018-11-13T02:54:56.749Z,24.10
2018-11-13T02:55:56.724Z,23.70
2018-11-13T02:56:56.690Z,18.20
2018-11-13T02:57:56.685Z,21.30
2018-11-13T02:58:56.665Z,25.00
2018-11-13T02:59:56.641Z,25.00
2018-11-13T03:00:56.610Z,20.70
2018-11-13T03:01:56.597Z,21.70
2018-11-13T03:02:56.566Z,22.50
2018-11-13T03:03:56.555Z,24.10
2018-11-13T03:04:56.534Z,20.60
2018-11-13T03:05:56.497Z,22.80
2018-11-13T03:06:56.492Z,23.30
2018-11-13T03:07:56.469Z,20.50
2018-11-13T03:08:56.433Z,21.70
2018-11-13T03:09:56.431Z,17.40
2018-11-13T03:10:56.426Z,20.00
2018-11-13T03:11:56.391Z,20.60
2018-11-13T03:12:56.372Z,18.80
2018-11-13T03:13:56.467Z,20.40
2018-11-13T03:14:56.325Z,18.30
2018-11-13T03:15:56.300Z,21.10
2018-11-13T03:16:56.284Z,19.80
2018-11-13T03:17:56.268Z,18.00
2018-11-13T03:18:56.241Z,17.70
2018-11-13T03:19:56.220Z,17.70
2018-11-13T03:20:56.194Z,18.80
2018-11-13T03:21:56.174Z,17.70
2018-11-13T03:22:56.156Z,19.20
2018-11-13T03:23:56.133Z,15.90
2018-11-13T03:24:56.121Z,16.10
2018-11-13T03:25:56.090Z,17.50
2018-11-13T03:26:56.058Z,16.90
2018-11-13T03:27:56.049Z,18.30
2018-11-13T03:28:56.028Z,20.00
2018-11-13T03:29:56.006Z,17.10
2018-11-13T03:30:56.111Z,15.80
2018-11-13T03:31:55.965Z,16.30
2018-11-13T03:32:55.932Z,15.70
2018-11-13T03:33:55.916Z,18.20
2018-11-13T03:34:55.888Z,16.90
2018-11-13T03:35:55.884Z,16.60
2018-11-13T03:36:55.854Z,18.00
2018-11-13T03:37:55.841Z,16.40
2018-11-13T03:38:55.800Z,16.60
2018-11-13T03:39:55.792Z,16.70
2018-11-13T03:40:55.768Z,16.70
2018-11-13T03:41:55.740Z,16.50
2018-11-13T03:42:55.720Z,17.10
2018-11-13T03:43:55.712Z,18.40
2018-11-13T03:44:55.689Z,15.40
2018-11-13T03:45:55.670Z,18.00
2018-11-13T03:46:55.653Z,20.80
2018-11-13T03:47:55.629Z,17.40
2018-11-13T03:48:55.614Z,18.30
2018-11-13T03:49:55.584Z,17.00
2018-11-13T03:50:55.565Z,17.10
2018-11-13T03:51:55.527Z,19.90
2018-11-13T03:52:55.516Z,16.20
2018-11-13T03:53:55.481Z,16.90
2018-11-13T03:54:55.466Z,19.50
2018-11-13T03:55:55.466Z,17.00
2018-11-13T03:56:55.445Z,17.10
2018-11-13T03:57:55.424Z,17.80
2018-11-13T03:58:55.397Z,17.30
2018-11-13T03:59:55.372Z,20.10
2018-11-13T04:00:55.349Z,19.40
2018-11-13T04:01:55.331Z,20.60
2018-11-13T04:02:55.315Z,20.90
2018-11-13T04:03:55.296Z,17.20
2018-11-13T04:04:55.272Z,23.10
2018-11-13T04:05:55.245Z,26.10
2018-11-13T04:06:55.228Z,25.20
2018-11-13T04:07:55.209Z,22.30
2018-11-13T04:08:55.175Z,23.40
2018-11-13T04:09:55.160Z,21.00
2018-11-13T04:10:55.148Z,20.70
2018-11-13T04:11:55.127Z,21.40
2018-11-13T04:12:55.101Z,19.10
2018-11-13T04:13:55.085Z,20.70
2018-11-13T04:14:55.063Z,20.10
2018-11-13T04:15:55.040Z,21.60
2018-11-13T04:16:54.998Z,19.90
2018-11-13T04:17:54.996Z,20.40
2018-11-13T04:18:54.960Z,21.80
2018-11-13T04:19:54.958Z,21.20
2018-11-13T04:20:54.947Z,23.50
2018-11-13T04:21:54.913Z,22.70
2018-11-13T04:22:54.885Z,19.70
2018-11-13T04:23:54.867Z,25.00
2018-11-13T04:24:54.845Z,23.40
2018-11-13T04:25:54.826Z,23.90
2018-11-13T04:26:54.812Z,22.30
2018-11-13T04:27:54.793Z,22.30
2018-11-13T04:28:54.768Z,23.20
2018-11-13T04:29:54.741Z,21.00
2018-11-13T04:30:54.767Z,22.10
2018-11-13T04:31:54.686Z,23.50
2018-11-13T04:32:54.681Z,25.10
2018-11-13T04:33:54.652Z,24.10
2018-11-13T04:34:54.637Z,25.70
2018-11-13T04:35:54.604Z,23.90
2018-11-13T04:36:54.582Z,25.50
2018-11-13T04:37:54.567Z,23.70
2018-11-13T04:38:54.551Z,30.10
2018-11-13T04:39:54.532Z,23.40
2018-11-13T04:40:54.518Z,28.70
2018-11-13T04:41:54.491Z,29.80
2018-11-13T04:42:54.451Z,28.70
2018-11-13T04:43:54.426Z,24.90
2018-11-13T04:44:54.414Z,27.10
2018-11-13T04:45:54.403Z,25.70
2018-11-13T04:46:54.367Z,26.60
2018-11-13T04:47:54.358Z,29.40
2018-11-13T04:48:54.342Z,26.00
2018-11-13T04:49:54.320Z,29.80
2018-11-13T04:50:54.302Z,31.10
2018-11-13T04:51:54.269Z,28.00
2018-11-13T04:52:54.252Z,32.80
2018-11-13T04:53:54.232Z,29.30
2018-11-13T04:54:54.217Z,29.20
2018-11-13T04:55:54.196Z,33.20
2018-11-13T04:56:54.153Z,30.40
2018-11-13T04:57:54.135Z,29.40
2018-11-13T04:58:54.117Z,26.90
2018-11-13T04:59:54.120Z,30.90
2018-11-13T05:00:54.091Z,30.60
2018-11-13T05:01:54.064Z,27.00
2018-11-13T05:02:54.093Z,32.00
2018-11-13T05:03:54.021Z,25.40
2018-11-13T05:04:54.002Z,30.30
2018-11-13T05:05:53.984Z,25.00
2018-11-13T05:06:53.961Z,28.80
2018-11-13T05:07:53.941Z,26.50
2018-11-13T05:08:53.917Z,32.00
2018-11-13T05:09:53.941Z,29.20
2018-11-13T05:10:53.879Z,30.90
2018-11-13T05:11:53.860Z,25.60
2018-11-13T05:12:53.832Z,25.80
2018-11-13T05:13:53.807Z,28.20
2018-11-13T05:14:53.789Z,27.30
2018-11-13T05:15:53.769Z,24.90
2018-11-13T05:16:53.753Z,29.20
2018-11-13T05:17:53.726Z,28.30
2018-11-13T05:18:53.709Z,28.00
2018-11-13T05:19:53.688Z,27.10
2018-11-13T05:20:53.651Z,26.20
2018-11-13T05:21:53.650Z,24.50
2018-11-13T05:22:53.666Z,23.10
2018-11-13T05:23:53.607Z,25.30
2018-11-13T05:24:53.581Z,25.30
2018-11-13T05:25:53.556Z,26.20
2018-11-13T05:26:53.532Z,24.10
2018-11-13T05:27:53.517Z,28.20
2018-11-13T05:28:53.496Z,26.50
2018-11-13T05:29:53.475Z,27.90
2018-11-13T05:30:53.453Z,29.70
2018-11-13T05:31:53.435Z,25.00
2018-11-13T05:32:53.415Z,25.00
2018-11-13T05:33:53.387Z,25.60
2018-11-13T05:34:53.367Z,21.60
2018-11-13T05:35:53.342Z,25.20
2018-11-13T05:36:53.395Z,23.50
2018-11-13T05:37:53.307Z,22.30
2018-11-13T05:38:53.282Z,20.70
2018-11-13T05:39:53.248Z,22.80
2018-11-13T05:40:53.227Z,22.50
2018-11-13T05:41:53.308Z,23.00
2018-11-13T05:42:53.188Z,25.90
2018-11-13T05:43:53.181Z,25.70
2018-11-13T05:44:53.157Z,22.10
2018-11-13T05:45:53.121Z,21.70
2018-11-13T05:46:53.108Z,25.20
2018-11-13T05:47:53.079Z,21.70
2018-11-13T05:48:53.075Z,20.90
2018-11-13T05:49:53.051Z,24.00
2018-11-13T05:50:53.028Z,21.60
2018-11-13T05:51:53.013Z,19.90
2018-11-13T05:52:52.990Z,24.10
2018-11-13T05:53:52.971Z,21.80
2018-11-13T05:54:52.955Z,22.50
2018-11-13T05:55:52.926Z,22.70
2018-11-13T05:56:52.903Z,20.00
2018-11-13T05:57:52.885Z,24.50
2018-11-13T05:58:52.868Z,20.10
2018-11-13T05:59:52.880Z,20.50
2018-11-13T06:00:52.826Z,17.60
2018-11-13T06:01:52.798Z,20.00
2018-11-13T06:02:52.768Z,21.50
2018-11-13T06:03:52.758Z,17.70
2018-11-13T06:04:52.742Z,16.10
2018-11-13T06:05:52.717Z,15.80
2018-11-13T06:06:52.699Z,18.30
2018-11-13T06:07:52.679Z,19.00
2018-11-13T06:08:52.659Z,20.50
2018-11-13T06:09:52.629Z,18.70
2018-11-13T06:10:52.608Z,18.50
2018-11-13T06:11:52.596Z,15.00
2018-11-13T06:12:52.579Z,19.30
2018-11-13T06:13:52.605Z,19.50
2018-11-13T06:14:52.528Z,21.00
2018-11-13T06:15:52.498Z,17.50
2018-11-13T06:16:52.490Z,17.40
2018-11-13T06:17:52.469Z,15.40
2018-11-13T06:18:52.444Z,13.70
2018-11-13T06:19:52.430Z,19.10
2018-11-13T06:20:52.405Z,19.50
2018-11-13T06:21:52.377Z,21.00
2018-11-13T06:22:52.403Z,19.50
2018-11-13T06:23:52.339Z,19.10
2018-11-13T06:24:52.317Z,18.10
2018-11-13T06:25:52.296Z,17.20
2018-11-13T06:26:52.259Z,19.10
2018-11-13T06:27:52.251Z,17.20
2018-11-13T06:28:52.238Z,16.90
2018-11-13T06:29:52.216Z,19.20
2018-11-13T06:30:52.193Z,19.80
2018-11-13T06:31:52.172Z,20.70
2018-11-13T06:32:52.153Z,19.50
2018-11-13T06:33:52.125Z,19.80
2018-11-13T06:34:52.108Z,18.40
2018-11-13T06:35:52.085Z,20.00
2018-11-13T06:36:52.068Z,20.40
2018-11-13T06:37:52.042Z,25.10
2018-11-13T06:38:52.111Z,19.00
2018-11-13T06:39:51.995Z,18.80
2018-11-13T06:40:51.964Z,17.20
2018-11-13T06:41:51.952Z,15.10
2018-11-13T06:42:51.942Z,18.70
2018-11-13T06:43:51.913Z,11.20
2018-11-13T06:44:51.892Z,19.30
2018-11-13T06:45:51.871Z,18.40
2018-11-13T06:46:51.854Z,22.50
2018-11-13T06:47:51.829Z,18.80
2018-11-13T06:48:51.848Z,16.90
2018-11-13T06:49:51.788Z,18.60
2018-11-13T06:50:51.771Z,16.50
2018-11-13T06:51:51.735Z,18.30
2018-11-13T06:52:51.715Z,16.40
2018-11-13T06:53:51.704Z,20.60
2018-11-13T06:54:51.668Z,15.90
2018-11-13T06:55:51.662Z,18.00
2018-11-13T06:56:51.640Z,17.40
2018-11-13T06:57:51.620Z,17.70
2018-11-13T06:58:51.605Z,15.20
2018-11-13T06:59:51.584Z,16.60
2018-11-13T07:00:51.546Z,15.70
2018-11-13T07:01:51.546Z,19.90
2018-11-13T07:02:51.513Z,21.20
2018-11-13T07:03:51.482Z,20.10
2018-11-13T07:04:51.508Z,18.30
2018-11-13T07:05:51.454Z,15.40
2018-11-13T07:06:51.412Z,16.80
2018-11-13T07:07:51.410Z,19.60
2018-11-13T07:08:51.395Z,18.70
2018-11-13T07:09:51.365Z,19.60
2018-11-13T07:10:51.552Z,19.30
2018-11-13T07:11:51.337Z,17.60
2018-11-13T07:12:51.311Z,14.30
2018-11-13T07:13:51.283Z,18.00
2018-11-13T07:14:51.265Z,16.20
2018-11-13T07:15:51.245Z,16.50
2018-11-13T07:16:51.225Z,15.50
2018-11-13T07:17:51.206Z,15.40
2018-11-13T07:18:51.182Z,17.60
2018-11-13T07:19:51.166Z,16.80
2018-11-13T07:20:51.144Z,19.50
2018-11-13T07:21:51.117Z,15.70
2018-11-13T07:22:51.104Z,15.70
2018-11-13T07:23:51.076Z,14.20
2018-11-13T07:24:51.058Z,19.20
2018-11-13T07:25:51.037Z,16.50
2018-11-13T07:26:51.013Z,16.20
2018-11-13T07:27:51.075Z,15.90
2018-11-13T07:28:50.959Z,12.20
2018-11-13T07:29:50.950Z,13.00
2018-11-13T07:30:50.920Z,15.70
2018-11-13T07:31:50.917Z,15.00
2018-11-13T07:32:50.886Z,16.60
2018-11-13T07:33:50.871Z,19.10
2018-11-13T07:34:50.831Z,15.20
2018-11-13T07:35:50.825Z,16.70
2018-11-13T07:36:50.803Z,16.60
2018-11-13T07:37:50.778Z,17.30
2018-11-13T07:38:50.764Z,15.50
2018-11-13T07:39:50.738Z,16.80
2018-11-13T07:40:50.776Z,16.50
2018-11-13T07:41:50.700Z,14.10
2018-11-13T07:42:50.680Z,16.30
2018-11-13T07:43:50.661Z,16.90
2018-11-13T07:44:50.637Z,16.70
2018-11-13T07:45:50.607Z,17.70
2018-11-13T07:46:50.637Z,16.30
2018-11-13T07:47:50.715Z,18.80
2018-11-13T07:48:50.551Z,16.90
2018-11-13T07:49:50.526Z,18.70
2018-11-13T07:50:50.496Z,16.30
2018-11-13T07:51:50.475Z,17.90
2018-11-13T07:52:50.468Z,16.60
2018-11-13T07:53:50.459Z,16.30
2018-11-13T07:54:50.430Z,17.60
2018-11-13T07:55:50.393Z,19.90
2018-11-13T07:56:50.380Z,19.90
2018-11-13T07:57:50.350Z,17.80
2018-11-13T07:58:50.325Z,17.80
2018-11-13T07:59:50.322Z,20.20
2018-11-13T08:00:50.297Z,17.20
2018-11-13T08:01:50.278Z,19.20
2018-11-13T08:02:50.261Z,18.80
2018-11-13T08:03:50.236Z,20.50
2018-11-13T08:04:50.215Z,20.30
2018-11-13T08:05:50.191Z,18.70
2018-11-13T08:06:50.282Z,19.30
2018-11-13T08:07:50.153Z,21.20
2018-11-13T08:08:50.116Z,17.70
2018-11-13T08:09:50.108Z,21.20
2018-11-13T08:10:50.073Z,17.90
2018-11-13T08:11:50.065Z,18.10
2018-11-13T08:12:50.081Z,21.60
2018-11-13T08:13:50.020Z,17.40
2018-11-13T08:14:50.005Z,20.30
2018-11-13T08:15:49.988Z,21.30
2018-11-13T08:16:49.959Z,20.60
2018-11-13T08:17:49.941Z,19.10
2018-11-13T08:18:49.953Z,18.70
2018-11-13T08:19:49.904Z,17.40
2018-11-13T08:20:49.878Z,23.50
2018-11-13T08:21:49.902Z,18.30
2018-11-13T08:22:49.831Z,20.00
2018-11-13T08:23:49.808Z,22.30
2018-11-13T08:24:49.787Z,21.10
2018-11-13T08:25:49.759Z,19.70
2018-11-13T08:26:49.762Z,24.40
2018-11-13T08:27:49.731Z,21.00
2018-11-13T08:28:49.826Z,22.10
2018-11-13T08:29:49.684Z,17.80
2018-11-13T08:30:49.667Z,21.40
2018-11-13T08:31:49.643Z,19.40
2018-11-13T08:32:49.614Z,23.10
2018-11-13T08:33:49.587Z,18.50
2018-11-13T08:34:49.648Z,23.20
2018-11-13T08:35:49.564Z,20.90
2018-11-13T08:36:49.542Z,19.80
2018-11-13T08:37:49.517Z,17.60
2018-11-13T08:38:49.494Z,20.10
2018-11-13T08:39:49.483Z,17.80
2018-11-13T08:40:49.455Z,18.90
2018-11-13T08:41:49.437Z,17.30
2018-11-13T08:42:49.411Z,21.00
2018-11-13T08:43:49.409Z,16.70
2018-11-13T08:44:49.378Z,18.60
2018-11-13T08:45:49.352Z,16.20
2018-11-13T08:46:49.329Z,18.30
2018-11-13T08:47:49.313Z,18.20
2018-11-13T08:48:49.287Z,16.60
2018-11-13T08:49:49.271Z,18.30
2018-11-13T08:50:49.293Z,17.20
2018-11-13T08:51:49.228Z,17.20
2018-11-13T08:52:49.212Z,19.50
2018-11-13T08:53:49.176Z,14.40
2018-11-13T08:54:49.163Z,17.00
2018-11-13T08:55:49.152Z,15.70
2018-11-13T08:56:49.134Z,15.40
2018-11-13T08:57:49.121Z,14.10
2018-11-13T08:58:49.166Z,15.40
2018-11-13T08:59:49.062Z,13.80
2018-11-13T09:00:49.043Z,15.70
2018-11-13T09:01:49.025Z,15.60
2018-11-13T09:02:49.018Z,12.30
2018-11-13T09:03:49.002Z,13.40
2018-11-13T09:04:48.985Z,13.60
2018-11-13T09:05:48.963Z,13.00
2018-11-13T09:06:48.940Z,14.80
2018-11-13T09:07:48.925Z,12.60
2018-11-13T09:08:48.912Z,13.10
2018-11-13T09:09:48.889Z,13.50
2018-11-13T09:10:48.862Z,13.60
2018-11-13T09:11:49.019Z,12.60
2018-11-13T09:12:48.828Z,13.70
2018-11-13T09:13:48.808Z,12.50
2018-11-13T09:14:48.796Z,12.20
2018-11-13T09:15:48.777Z,13.40
2018-11-13T09:16:48.759Z,13.00
2018-11-13T09:17:48.722Z,13.10
2018-11-13T09:18:48.742Z,13.30
2018-11-13T09:19:48.705Z,14.70
2018-11-13T09:20:48.675Z,13.50
2018-11-13T09:21:48.699Z,14.30
2018-11-13T09:22:48.668Z,13.40
2018-11-13T09:23:48.634Z,13.50
2018-11-13T09:24:48.619Z,14.00
2018-11-13T09:25:48.598Z,14.80
2018-11-13T09:26:48.586Z,14.40
2018-11-13T09:27:48.568Z,14.30
2018-11-13T09:28:48.547Z,14.10
2018-11-13T09:29:48.615Z,12.90
2018-11-13T09:30:48.777Z,16.10
2018-11-13T09:31:48.558Z,13.00
2018-11-13T09:32:48.543Z,12.70
2018-11-13T09:33:48.465Z,12.10
2018-11-13T09:34:48.450Z,12.30
2018-11-13T09:35:48.457Z,14.10
2018-11-13T09:36:48.417Z,13.70
2018-11-13T09:37:48.380Z,11.70
2018-11-13T09:38:48.379Z,11.20
2018-11-13T09:39:48.363Z,14.00
2018-11-13T09:40:48.349Z,12.20
2018-11-13T09:41:48.330Z,11.60
2018-11-13T09:42:48.313Z,11.00
2018-11-13T09:43:48.300Z,12.00
2018-11-13T09:44:48.339Z,10.60
2018-11-13T09:45:48.335Z,11.30
2018-11-13T09:46:48.249Z,11.30
2018-11-13T09:47:48.326Z,11.10
2018-11-13T09:48:48.206Z,13.10
2018-11-13T09:49:48.206Z,10.90
2018-11-13T09:50:48.275Z,11.80
2018-11-13T09:51:48.175Z,12.10
2018-11-13T09:52:48.163Z,12.30
2018-11-13T09:53:48.220Z,11.00
2018-11-13T09:54:48.135Z,10.70
2018-11-13T09:55:48.097Z,11.40
2018-11-13T09:56:48.080Z,11.10
2018-11-13T09:57:48.084Z,11.50
2018-11-13T09:58:48.109Z,10.80
2018-11-13T09:59:48.090Z,11.20
2018-11-13T10:00:48.248Z,12.50
2018-11-13T10:01:48.490Z,12.20
2018-11-13T10:02:48.770Z,11.10
2018-11-13T10:03:48.620Z,11.50
2018-11-13T10:04:48.687Z,11.60
2018-11-13T10:05:48.094Z,10.80
2018-11-13T10:06:47.971Z,10.60
2018-11-13T10:07:47.946Z,13.80
2018-11-13T10:08:48.333Z,11.10
2018-11-13T10:09:47.915Z,10.80
2018-11-13T10:10:47.969Z,11.70
2018-11-13T10:11:47.891Z,11.60
2018-11-13T10:12:47.879Z,11.10
2018-11-13T10:13:47.852Z,9.80
2018-11-13T10:14:47.851Z,10.90
2018-11-13T10:15:47.821Z,10.30
2018-11-13T10:16:47.813Z,8.90
2018-11-13T10:17:47.886Z,10.50
2018-11-13T10:18:47.786Z,9.90
2018-11-13T10:19:47.780Z,13.20
2018-11-13T10:20:47.777Z,10.90
2018-11-13T10:21:47.755Z,11.20
2018-11-13T10:22:47.732Z,11.50
2018-11-13T10:23:47.738Z,11.30
2018-11-13T10:24:47.727Z,11.20
2018-11-13T10:25:47.716Z,10.50
2018-11-13T10:26:47.699Z,10.90
2018-11-13T10:27:47.707Z,11.90
2018-11-13T10:28:47.696Z,12.10
2018-11-13T10:29:47.682Z,11.80
2018-11-13T10:30:47.653Z,10.10
2018-11-13T10:31:47.648Z,9.10
2018-11-13T10:32:47.670Z,11.90
2018-11-13T10:33:47.618Z,9.70
2018-11-13T10:34:47.611Z,9.60
2018-11-13T10:35:47.597Z,10.10
2018-11-13T10:36:47.580Z,9.60
2018-11-13T10:37:47.578Z,9.20
2018-11-13T10:38:47.558Z,8.90
2018-11-13T10:39:47.593Z,8.90
2018-11-13T10:40:47.741Z,8.80
2018-11-13T10:41:47.511Z,9.90
2018-11-13T10:42:47.494Z,8.70
2018-11-13T10:43:47.496Z,8.20
2018-11-13T10:44:47.493Z,8.70
2018-11-13T10:45:47.483Z,8.20
2018-11-13T10:46:47.470Z,8.50
2018-11-13T10:47:47.467Z,10.20
2018-11-13T10:48:47.465Z,8.70
2018-11-13T10:49:47.436Z,8.90
2018-11-13T10:50:47.421Z,8.80
2018-11-13T10:51:47.411Z,8.20
2018-11-13T10:52:47.409Z,7.90
2018-11-13T10:53:47.392Z,8.10
2018-11-13T10:54:47.378Z,10.60
2018-11-13T10:55:47.362Z,10.30
2018-11-13T10:56:47.357Z,8.90
2018-11-13T10:57:47.330Z,10.60
2018-11-13T10:58:47.330Z,10.90
2018-11-13T10:59:47.307Z,10.10
2018-11-13T11:00:47.431Z,10.20
2018-11-13T11:01:47.281Z,9.30
2018-11-13T11:02:47.318Z,9.20
2018-11-13T11:03:47.280Z,8.90
2018-11-13T11:04:47.264Z,8.50
2018-11-13T11:05:47.244Z,9.80
2018-11-13T11:06:47.247Z,8.90
2018-11-13T11:07:47.230Z,11.50
2018-11-13T11:08:47.208Z,10.70
2018-11-13T11:09:47.184Z,7.70
2018-11-13T11:10:47.193Z,8.70
2018-11-13T11:11:47.177Z,8.60
2018-11-13T11:12:47.182Z,9.40
2018-11-13T11:13:47.303Z,10.90
2018-11-13T11:14:47.144Z,10.50
2018-11-13T11:15:47.133Z,9.60
2018-11-13T11:16:47.121Z,8.60
2018-11-13T11:17:47.105Z,8.70
2018-11-13T11:18:47.132Z,7.80
2018-11-13T11:19:47.081Z,8.60
2018-11-13T11:20:47.074Z,9.30
2018-11-13T11:21:47.048Z,9.50
2018-11-13T11:22:47.089Z,9.90
2018-11-13T11:23:47.084Z,8.20
2018-11-13T11:24:47.016Z,8.80
2018-11-13T11:25:47.014Z,8.00
2018-11-13T11:26:46.981Z,7.20
2018-11-13T11:27:47.056Z,9.80
2018-11-13T11:28:46.971Z,8.60
2018-11-13T11:29:46.953Z,9.80
2018-11-13T11:30:46.989Z,11.70
2018-11-13T11:31:46.933Z,9.00
2018-11-13T11:32:46.923Z,9.50
2018-11-13T11:33:46.905Z,7.30
2018-11-13T11:34:46.896Z,7.50
2018-11-13T11:35:46.882Z,8.40
2018-11-13T11:36:46.868Z,6.00
2018-11-13T11:37:46.854Z,3.90
2018-11-13T11:38:46.927Z,7.00
2018-11-13T11:39:46.840Z,4.30
2018-11-13T11:40:46.827Z,4.80
2018-11-13T11:41:46.808Z,5.40
2018-11-13T11:42:46.794Z,5.60
2018-11-13T11:43:46.763Z,5.70
2018-11-13T11:44:46.756Z,5.10
2018-11-13T11:45:46.743Z,5.60
2018-11-13T11:46:46.743Z,5.20
2018-11-13T11:47:46.734Z,4.70
2018-11-13T11:48:46.716Z,5.10
2018-11-13T11:49:46.706Z,6.80
2018-11-13T11:50:46.712Z,3.60
2018-11-13T11:51:46.676Z,4.60
2018-11-13T11:52:46.647Z,3.90
2018-11-13T11:53:46.664Z,3.80
2018-11-13T11:54:46.625Z,6.50
2018-11-13T11:55:46.626Z,4.30
2018-11-13T11:56:46.616Z,3.30
2018-11-13T11:57:46.605Z,3.50
2018-11-13T11:58:46.584Z,4.20
2018-11-13T11:59:46.577Z,4.00
2018-11-13T12:00:46.654Z,5.00
2018-11-13T12:01:46.548Z,3.30
2018-11-13T12:02:46.537Z,5.40
2018-11-13T12:03:46.522Z,3.30
2018-11-13T12:04:46.530Z,3.00
2018-11-13T12:05:46.502Z,3.30
2018-11-13T12:06:46.486Z,3.70
2018-11-13T12:07:46.469Z,4.40
2018-11-13T12:08:46.464Z,4.10
2018-11-13T12:09:46.444Z,3.50
2018-11-13T12:10:46.429Z,4.30
2018-11-13T12:11:46.415Z,3.50
2018-11-13T12:12:46.405Z,4.00
2018-11-13T12:13:46.389Z,3.80
2018-11-13T12:14:46.376Z,3.30
2018-11-13T12:15:46.349Z,4.20
2018-11-13T12:16:46.346Z,7.00
2018-11-13T12:17:46.320Z,3.50
2018-11-13T12:18:46.337Z,2.50
2018-11-13T12:19:46.304Z,3.20
2018-11-13T12:20:46.303Z,3.50
2018-11-13T12:21:46.279Z,2.80
2018-11-13T12:22:46.267Z,2.20
2018-11-13T12:23:46.276Z,2.90
2018-11-13T12:24:46.260Z,2.40
2018-11-13T12:25:46.292Z,2.40
2018-11-13T12:26:46.223Z,2.70
2018-11-13T12:27:46.208Z,6.50
2018-11-13T12:28:46.193Z,4.40
2018-11-13T12:29:46.227Z,2.60
2018-11-13T12:30:46.176Z,3.10
2018-11-13T12:31:46.156Z,4.10
2018-11-13T12:32:46.190Z,2.90
2018-11-13T12:33:46.140Z,2.70
2018-11-13T12:34:46.230Z,2.40
2018-11-13T12:35:46.090Z,3.20
2018-11-13T12:36:46.096Z,3.00
2018-11-13T12:37:46.081Z,3.00
2018-11-13T12:38:46.056Z,2.10
2018-11-13T12:39:46.073Z,2.90
2018-11-13T12:40:46.117Z,3.30
2018-11-13T12:41:46.029Z,2.50
2018-11-13T12:42:46.517Z,2.80
2018-11-13T12:43:45.997Z,3.80
2018-11-13T12:44:45.978Z,3.00
2018-11-13T12:45:45.968Z,3.30
2018-11-13T12:46:45.967Z,3.30
2018-11-13T12:47:45.959Z,5.70
2018-11-13T12:48:45.984Z,3.50
2018-11-13T12:49:45.933Z,4.80
2018-11-13T12:50:45.922Z,3.40
2018-11-13T12:51:45.902Z,5.40
2018-11-13T12:52:45.901Z,3.10
2018-11-13T12:53:45.877Z,2.80
2018-11-13T12:54:45.868Z,2.90
2018-11-13T12:55:46.026Z,2.70
2018-11-13T12:56:45.841Z,2.40